Time;durP1;ratioP1;P1;durP2;ratioP2;P2;SDS_P1;SDS_P2;PMS_P1;PMS_P2;Temp;Humidity;BMP_temperature;BMP_pressure;BME280_temperature;BME280_humidity;BME280_pressure;Samples;Min_cycle;Max_cycle;Signal;HPM_P1;HPM_P2
2023/06/25 00:00:08;;;;;;;11.93;8.82;;;12.80;99.90;;;;;;5093938;28;20039;-83
2023/06/25 00:02:33;;;;;;;14.45;9.27;;;12.80;99.90;;;;;;5094638;28;20110;-83
2023/06/25 00:04:59;;;;;;;14.18;8.57;;;12.80;99.90;;;;;;5095706;28;20024;-84
2023/06/25 00:07:24;;;;;;;11.32;9.07;;;12.80;99.90;;;;;;5094491;28;20063;-84
2023/06/25 00:09:55;;;;;;;13.05;9.32;;;12.80;99.90;;;;;;5094918;28;20527;-83
2023/06/25 00:12:22;;;;;;;13.10;9.45;;;12.70;99.90;;;;;;5094442;28;20426;-84
2023/06/25 00:14:48;;;;;;;11.10;9.25;;;12.70;99.90;;;;;;5095664;28;20078;-84
2023/06/25 00:17:17;;;;;;;11.20;9.13;;;12.70;99.90;;;;;;5094407;28;20028;-84
2023/06/25 00:19:43;;;;;;;13.77;10.05;;;12.70;99.90;;;;;;5094323;28;20551;-82
2023/06/25 00:22:11;;;;;;;14.48;9.48;;;12.70;99.90;;;;;;5094259;28;20043;-84
2023/06/25 00:24:40;;;;;;;12.57;9.52;;;12.70;99.90;;;;;;5094281;28;20025;-83
2023/06/25 00:27:06;;;;;;;;;;;12.70;99.90;;;;;;5094512;28;20028;-84
2023/06/25 00:29:32;;;;;;;12.40;9.23;;;12.70;99.90;;;;;;5095338;28;19939;-84
2023/06/25 00:31:58;;;;;;;12.93;8.85;;;12.70;99.90;;;;;;5094034;28;20020;-83
2023/06/25 00:34:23;;;;;;;13.52;9.63;;;12.70;99.90;;;;;;5095080;28;20157;-84
2023/06/25 00:36:51;;;;;;;14.05;9.40;;;12.60;99.90;;;;;;5093678;28;20464;-83
2023/06/25 00:39:21;;;;;;;17.40;9.70;;;12.60;99.90;;;;;;5094146;28;20031;-83
2023/06/25 00:41:50;;;;;;;11.63;9.75;;;12.60;99.90;;;;;;5093976;28;20445;-84
2023/06/25 00:44:15;;;;;;;12.00;9.32;;;12.60;99.90;;;;;;5093549;28;20020;-84
2023/06/25 00:46:41;;;;;;;14.95;9.80;;;12.60;99.90;;;;;;5093938;28;20028;-83
2023/06/25 00:49:07;;;;;;;11.50;9.23;;;12.60;99.90;;;;;;5093189;28;20380;-84
2023/06/25 00:51:35;;;;;;;12.52;9.55;;;12.60;99.90;;;;;;5057538;28;20036;-83
2023/06/25 00:54:05;;;;;;;15.32;9.40;;;12.60;99.90;;;;;;5075222;28;20411;-84
2023/06/25 00:56:35;;;;;;;10.65;9.30;;;12.60;99.90;;;;;;5056458;28;20028;-84
2023/06/25 00:59:02;;;;;;;14.68;9.52;;;12.60;99.90;;;;;;5056848;28;20058;-83
2023/06/25 01:01:52;;;;;;;13.02;9.48;;;12.60;99.90;;;;;;5056737;28;20032;-83
2023/06/25 01:04:25;;;;;;;13.40;9.45;;;12.60;99.90;;;;;;5056850;28;20032;-84
2023/06/25 01:06:55;;;;;;;14.10;9.75;;;12.60;99.90;;;;;;5057070;28;20388;-83
2023/06/25 01:09:22;;;;;;;11.38;8.95;;;12.50;99.90;;;;;;5056256;28;20058;-83
2023/06/25 01:12:02;;;;;;;13.75;10.18;;;12.60;99.90;;;;;;5074705;28;20035;-84
2023/06/25 01:14:29;;;;;;;13.70;9.18;;;12.50;99.90;;;;;;5056948;28;20029;-83
2023/06/25 01:16:55;;;;;;;11.80;9.13;;;12.60;99.90;;;;;;5056931;28;20033;-83
2023/06/25 01:19:29;;;;;;;14.77;8.88;;;10.30;99.90;;;;;;5056810;28;20032;-84
2023/06/25 01:22:02;;;;;;;12.50;8.95;;;12.50;99.90;;;;;;5056726;28;20514;-83
2023/06/25 01:24:28;;;;;;;13.68;9.23;;;12.50;99.90;;;;;;5056490;28;20032;-84
2023/06/25 01:26:56;;;;;;;13.32;8.88;;;12.50;99.90;;;;;;5074390;28;20029;-83
2023/06/25 01:29:22;;;;;;;13.70;9.00;;;12.40;99.90;;;;;;5074367;28;20035;-84
2023/06/25 01:31:51;;;;;;;11.45;8.65;;;12.40;99.90;;;;;;5056519;28;20028;-83
2023/06/25 01:34:20;;;;;;;11.27;9.18;;;12.30;99.90;;;;;;5056506;28;20457;-84
2023/06/25 01:36:52;;;;;;;11.50;9.32;;;12.30;99.90;;;;;;5074471;28;20032;-85
2023/06/25 01:39:19;;;;;;;11.98;9.88;;;12.30;99.90;;;;;;5056729;28;20040;-84
2023/06/25 01:41:46;;;;;;;12.60;9.70;;;12.30;99.90;;;;;;5074494;28;20099;-84
2023/06/25 01:44:25;;;;;;;13.50;9.55;;;12.30;99.90;;;;;;5056441;28;20025;-86
2023/06/25 01:46:50;;;;;;;12.60;9.57;;;12.30;99.90;;;;;;5056181;28;20033;-84
2023/06/25 01:49:16;;;;;;;14.30;9.93;;;12.30;99.90;;;;;;5074071;28;20028;-84
2023/06/25 01:51:42;;;;;;;13.73;9.65;;;12.30;99.90;;;;;;5056278;28;20120;-84
2023/06/25 01:54:07;;;;;;;15.98;9.80;;;12.30;99.90;;;;;;5056464;28;20111;-85
2023/06/25 01:56:33;;;;;;;13.90;9.68;;;12.30;99.90;;;;;;5073927;28;20115;-84
2023/06/25 01:58:59;;;;;;;14.32;9.48;;;12.30;99.90;;;;;;5056299;28;20033;-84
2023/06/25 02:01:24;;;;;;;14.27;9.70;;;12.30;99.90;;;;;;5074066;28;20024;-86
2023/06/25 02:03:50;;;;;;;16.35;9.75;;;12.30;99.90;;;;;;5056325;28;20028;-84
2023/06/25 02:06:16;;;;;;;13.55;9.45;;;12.30;99.90;;;;;;5074075;28;20032;-85
2023/06/25 02:08:42;;;;;;;14.50;10.38;;;12.30;99.90;;;;;;5074427;28;20085;-84
2023/06/25 02:11:08;;;;;;;13.25;10.20;;;12.30;99.90;;;;;;5073996;28;20444;-85
2023/06/25 02:13:34;;;;;;;14.73;10.23;;;12.30;99.90;;;;;;5057163;28;20042;-83
2023/06/25 02:16:01;;;;;;;17.25;9.60;;;12.20;99.90;;;;;;5056574;28;20028;-84
2023/06/25 02:18:28;;;;;;;16.23;10.60;;;12.20;99.90;;;;;;5056704;28;20033;-85
2023/06/25 02:20:54;;;;;;;13.63;10.15;;;12.30;99.90;;;;;;5074514;28;20016;-84
2023/06/25 02:23:19;;;;;;;16.90;9.90;;;12.30;99.90;;;;;;5059524;28;20027;-86
2023/06/25 02:25:45;;;;;;;16.05;10.27;;;12.30;99.90;;;;;;5059794;28;20031;-86
2023/06/25 02:28:11;;;;;;;14.52;9.80;;;12.30;99.90;;;;;;5059595;28;20048;-85
2023/06/25 02:30:36;;;;;;;13.75;9.10;;;12.30;99.90;;;;;;5059483;28;20123;-84
2023/06/25 02:33:02;;;;;;;11.82;9.60;;;12.30;99.90;;;;;;5059347;28;20060;-85
2023/06/25 02:35:28;;;;;;;11.95;9.32;;;12.20;99.90;;;;;;5077135;28;20456;-84
2023/06/25 02:37:54;;;;;;;13.98;9.90;;;12.30;99.90;;;;;;5059053;28;20035;-85
2023/06/25 02:40:20;;;;;;;13.40;9.35;;;12.20;99.90;;;;;;5077142;28;20021;-86
2023/06/25 02:42:46;;;;;;;13.93;9.35;;;12.20;99.90;;;;;;5077019;28;20026;-86
2023/06/25 02:45:12;;;;;;;14.07;9.35;;;12.20;99.90;;;;;;5059297;28;20024;-85
2023/06/25 02:47:37;;;;;;;11.63;8.95;;;12.20;99.90;;;;;;5059345;28;20032;-84
2023/06/25 02:50:03;;;;;;;12.45;9.30;;;12.20;99.90;;;;;;5072942;28;20075;-85
2023/06/25 02:52:29;;;;;;;15.35;9.20;;;12.20;99.90;;;;;;5096179;28;20046;-86
2023/06/25 02:54:55;;;;;;;12.52;9.45;;;12.20;99.90;;;;;;5095581;28;20028;-85
2023/06/25 02:57:23;;;;;;;13.82;9.55;;;12.20;99.90;;;;;;5095961;28;20035;-86
2023/06/25 02:59:49;;;;;;;12.65;9.50;;;12.20;99.90;;;;;;5097139;28;20029;-86
2023/06/25 03:02:14;;;;;;;13.85;9.18;;;12.30;99.90;;;;;;5095965;28;20024;-86
2023/06/25 03:04:40;;;;;;;18.42;10.02;;;12.30;99.90;;;;;;5095798;28;20382;-86
2023/06/25 03:07:06;;;;;;;14.00;10.15;;;12.30;99.90;;;;;;5095932;28;20035;-84
2023/06/25 03:09:31;;;;;;;13.38;9.70;;;12.40;99.90;;;;;;5097017;28;20084;-83
2023/06/25 03:11:57;;;;;;;13.07;9.73;;;12.40;99.90;;;;;;5095935;28;20024;-85
2023/06/25 03:14:23;;;;;;;12.00;9.10;;;12.40;99.90;;;;;;5095645;28;20056;-85
2023/06/25 03:16:48;;;;;;;11.10;9.07;;;12.40;99.90;;;;;;5095725;28;20063;-86
2023/06/25 03:19:14;;;;;;;14.45;9.90;;;12.40;99.90;;;;;;5095374;28;20118;-85
2023/06/25 03:21:40;;;;;;;15.13;10.13;;;12.50;99.90;;;;;;5095509;28;20024;-85
2023/06/25 03:24:05;;;;;;;13.75;9.43;;;12.50;99.90;;;;;;5095550;28;20020;-85
2023/06/25 03:26:31;;;;;;;14.02;9.60;;;12.50;99.90;;;;;;5096508;28;20024;-85
2023/06/25 03:28:58;;;;;;;15.38;9.95;;;12.60;99.90;;;;;;5095315;28;20023;-85
2023/06/25 03:31:24;;;;;;;11.05;8.88;;;12.60;99.90;;;;;;5096443;28;20024;-85
2023/06/25 03:33:49;;;;;;;10.48;8.88;;;12.70;99.90;;;;;;5095142;28;20463;-85
2023/06/25 03:36:16;;;;;;;16.95;9.57;;;12.70;99.90;;;;;;5096004;28;20028;-86
2023/06/25 03:38:42;;;;;;;12.65;9.32;;;12.80;99.90;;;;;;5095088;28;20039;-86
2023/06/25 03:41:07;;;;;;;10.93;8.55;;;12.80;99.90;;;;;;5096128;28;20056;-84
2023/06/25 03:43:33;;;;;;;10.95;9.27;;;12.90;99.90;;;;;;5095100;28;20028;-83
2023/06/25 03:45:59;;;;;;;14.38;9.75;;;12.90;99.90;;;;;;5094924;28;20063;-85
2023/06/25 03:48:24;;;;;;;12.05;9.40;;;13.00;99.90;;;;;;5078118;28;20028;-86
2023/06/25 03:50:50;;;;;;;12.10;8.68;;;13.20;99.90;;;;;;5094149;28;20044;-85
2023/06/25 03:53:16;;;;;;;13.00;9.20;;;13.20;99.90;;;;;;5094984;28;20024;-85
2023/06/25 03:55:42;;;;;;;13.18;8.43;;;13.40;99.90;;;;;;5094752;28;20517;-84
2023/06/25 03:58:08;;;;;;;11.82;8.43;;;13.40;99.90;;;;;;5094672;28;20036;-85
2023/06/25 04:00:34;;;;;;;12.98;8.13;;;13.50;99.90;;;;;;5094610;28;20114;-87
2023/06/25 04:02:59;;;;;;;13.50;8.68;;;13.60;99.90;;;;;;5094704;28;20110;-85
2023/06/25 04:05:25;;;;;;;8.75;7.85;;;13.60;99.90;;;;;;5094607;28;20024;-85
2023/06/25 04:07:51;;;;;;;8.57;7.53;;;13.70;99.90;;;;;;5094646;28;20482;-85
2023/06/25 04:10:16;;;;;;;13.82;7.75;;;13.80;99.90;;;;;;5095665;28;20020;-84
2023/06/25 04:12:42;;;;;;;12.38;7.45;;;13.80;99.90;;;;;;5095676;28;20081;-85
2023/06/25 04:15:08;;;;;;;11.60;7.85;;;13.90;99.90;;;;;;5095331;28;20020;-85
2023/06/25 04:17:34;;;;;;;13.35;7.95;;;14.00;99.90;;;;;;5094528;28;20028;-85
2023/06/25 04:19:59;;;;;;;10.13;7.50;;;14.10;99.90;;;;;;5094900;28;20036;-86
2023/06/25 04:22:25;;;;;;;9.27;7.28;;;14.10;99.90;;;;;;5094548;28;20058;-85
2023/06/25 04:24:51;;;;;;;9.75;7.45;;;14.20;99.90;;;;;;5095487;28;20093;-85
2023/06/25 04:27:16;;;;;;;12.30;7.35;;;14.30;99.90;;;;;;5094195;28;20024;-85
2023/06/25 04:29:42;;;;;;;8.82;6.80;;;14.40;99.90;;;;;;5095272;28;20031;-85
2023/06/25 04:32:08;;;;;;;10.73;6.88;;;14.40;99.90;;;;;;5094114;28;20035;-85
2023/06/25 04:34:34;;;;;;;8.02;6.85;;;14.50;99.90;;;;;;5095066;28;20384;-84
2023/06/25 04:36:59;;;;;;;9.23;7.15;;;14.60;99.90;;;;;;5095151;28;20024;-85
2023/06/25 04:39:25;;;;;;;11.73;7.03;;;14.70;99.90;;;;;;5093557;28;20032;-81
2023/06/25 04:41:51;;;;;;;8.57;6.95;;;14.80;99.90;;;;;;5094529;28;20024;-81
2023/06/25 04:44:16;;;;;;;8.40;6.50;;;14.90;99.90;;;;;;5093958;28;20024;-81
2023/06/25 04:46:42;;;;;;;8.60;6.88;;;15.00;99.90;;;;;;5094004;28;20368;-81
2023/06/25 04:49:07;;;;;;;10.20;6.50;;;15.00;99.90;;;;;;5092245;28;20028;-81
2023/06/25 04:51:34;;;;;;;9.95;6.22;;;15.10;99.90;;;;;;5074160;28;20047;-81
2023/06/25 04:54:00;;;;;;;7.57;6.18;;;15.20;99.90;;;;;;5074204;28;20107;-81
2023/06/25 04:56:25;;;;;;;8.75;5.43;;;15.20;99.90;;;;;;5074147;28;20116;-81
2023/06/25 04:58:51;;;;;;;8.60;6.65;;;15.30;99.90;;;;;;5074235;28;20066;-81
2023/06/25 05:01:17;;;;;;;7.63;6.40;;;15.40;99.90;;;;;;5074269;28;20024;-82
2023/06/25 05:03:42;;;;;;;7.80;6.28;;;15.50;99.90;;;;;;5074250;28;20448;-81
2023/06/25 05:06:08;;;;;;;7.18;6.30;;;15.70;99.90;;;;;;5074048;28;20078;-82
2023/06/25 05:08:33;;;;;;;9.40;6.18;;;15.80;99.90;;;;;;5056298;28;20055;-81
2023/06/25 05:10:59;;;;;;;7.15;5.63;;;16.00;99.90;;;;;;5056483;28;20111;-81
2023/06/25 05:13:25;;;;;;;7.03;5.93;;;16.10;99.90;;;;;;5055951;28;20453;-81
2023/06/25 05:15:50;;;;;;;8.50;6.65;;;16.20;99.90;;;;;;5055974;28;20508;-81
2023/06/25 05:18:22;;;;;;;7.72;6.65;;;16.30;99.90;;;;;;5056127;28;20170;-81
2023/06/25 05:20:48;;;;;;;8.82;6.15;;;16.40;99.90;;;;;;5056016;28;20033;-81
2023/06/25 05:23:13;;;;;;;9.68;6.38;;;16.50;99.90;;;;;;5073750;28;20453;-81
2023/06/25 05:25:39;;;;;;;9.05;6.85;;;16.60;99.90;;;;;;5073705;28;20032;-81
2023/06/25 05:28:05;;;;;;;6.93;5.82;;;16.70;99.90;;;;;;5073837;28;20021;-81
2023/06/25 05:30:31;;;;;;;6.15;5.50;;;16.80;99.90;;;;;;5073795;28;20021;-81
2023/06/25 05:32:57;;;;;;;7.05;5.95;;;16.90;99.90;;;;;;5053678;28;20139;-76
2023/06/25 05:35:26;;;;;;;8.73;5.40;;;17.00;99.90;;;;;;5073079;28;20032;-76
2023/06/25 05:37:51;;;;;;;6.22;5.63;;;17.10;99.90;;;;;;5073369;28;20025;-75
2023/06/25 05:40:17;;;;;;;7.05;5.97;;;17.20;99.90;;;;;;5055508;28;20039;-76
2023/06/25 05:42:43;;;;;;;7.57;5.45;;;17.40;99.90;;;;;;5073361;28;20029;-75
2023/06/25 05:45:09;;;;;;;9.40;6.30;;;17.50;99.90;;;;;;5073350;28;20115;-76
2023/06/25 05:47:35;;;;;;;9.02;6.38;;;17.60;99.90;;;;;;5073397;28;20032;-76
2023/06/25 05:50:01;;;;;;;8.30;6.10;;;17.70;99.90;;;;;;5073285;28;20044;-75
2023/06/25 05:52:26;;;;;;;7.15;5.53;;;17.80;99.90;;;;;;5073286;28;20476;-76
2023/06/25 05:54:52;;;;;;;6.50;5.57;;;17.90;99.90;;;;;;5073544;28;20346;-77
2023/06/25 05:57:18;;;;;;;6.85;6.15;;;18.00;99.90;;;;;;5076082;28;20477;-76
2023/06/25 05:59:44;;;;;;;8.15;5.75;;;18.20;99.90;;;;;;5077284;28;20033;-76
2023/06/25 06:02:09;;;;;;;7.10;5.88;;;18.40;99.90;;;;;;5058983;28;20024;-76
2023/06/25 06:04:35;;;;;;;6.00;5.40;;;18.50;99.90;;;;;;5058986;28;20031;-76
2023/06/25 06:07:01;;;;;;;6.72;5.35;;;18.60;99.90;;;;;;5059009;28;20028;-75
2023/06/25 06:09:27;;;;;;;6.60;5.78;;;18.60;99.90;;;;;;5076834;28;20016;-75
2023/06/25 06:11:53;;;;;;;9.52;5.82;;;18.60;99.90;;;;;;5076559;28;20427;-74
2023/06/25 06:14:18;;;;;;;7.47;6.15;;;18.50;99.90;;;;;;5076378;28;20036;-74
2023/06/25 06:16:44;;;;;;;9.40;5.50;;;18.60;99.90;;;;;;5058641;28;20063;-76
2023/06/25 06:19:09;;;;;;;6.82;5.35;;;18.60;99.90;;;;;;5076366;28;20395;-75
2023/06/25 06:21:35;;;;;;;6.70;5.30;;;18.70;99.90;;;;;;5076282;28;20025;-75
2023/06/25 06:24:01;;;;;;;6.82;5.03;;;18.90;99.90;;;;;;5076844;28;20066;-75
2023/06/25 06:26:26;;;;;;;8.23;5.15;;;19.40;99.90;;;;;;5076234;28;20473;-74
2023/06/25 06:28:52;;;;;;;5.50;5.00;;;19.90;99.90;;;;;;5076482;28;20051;-73
2023/06/25 06:31:18;;;;;;;7.80;5.40;;;20.60;99.90;;;;;;5076635;28;20058;-64
2023/06/25 06:33:44;;;;;;;5.32;4.75;;;20.90;99.90;;;;;;5058403;28;20021;-65
2023/06/25 06:36:10;;;;;;;5.65;5.15;;;21.30;99.90;;;;;;5076066;28;20028;-63
2023/06/25 06:38:35;;;;;;;5.38;4.85;;;21.50;99.90;;;;;;5075923;28;20464;-65
2023/06/25 06:41:01;;;;;;;7.60;5.18;;;21.80;99.90;;;;;;5076228;28;20058;-72
2023/06/25 06:43:27;;;;;;;7.85;5.20;;;22.10;99.90;;;;;;5076321;28;20040;-72
2023/06/25 06:45:52;;;;;;;5.15;4.65;;;22.00;99.90;;;;;;5076314;28;20024;-72
2023/06/25 06:48:18;;;;;;;8.32;5.30;;;22.20;99.90;;;;;;5058307;28;20115;-72
2023/06/25 06:50:44;;;;;;;6.82;5.50;;;22.30;99.90;;;;;;5075565;28;20040;-72
2023/06/25 06:53:09;;;;;;;10.32;5.07;;;22.40;99.90;;;;;;5076013;28;20032;-73
2023/06/25 06:55:35;;;;;;;6.65;5.38;;;22.60;99.90;;;;;;5057648;28;20122;-75
2023/06/25 06:58:01;;;;;;;5.80;4.85;;;22.70;99.90;;;;;;5057860;28;20040;-76
2023/06/25 07:00:26;;;;;;;5.68;4.90;;;22.80;99.90;;;;;;5075898;28;20028;-74
2023/06/25 07:02:55;;;;;;;6.20;4.88;;;23.00;99.90;;;;;;5075888;28;20419;-74
2023/06/25 07:05:22;;;;;;;8.30;5.20;;;23.30;99.90;;;;;;5057850;28;20032;-75
2023/06/25 07:07:48;;;;;;;6.07;5.47;;;23.40;99.20;;;;;;5057105;28;20032;-75
2023/06/25 07:10:13;;;;;;;5.97;5.38;;;23.40;99.70;;;;;;5075985;28;20483;-76
2023/06/25 07:12:39;;;;;;;6.82;5.85;;;23.40;98.70;;;;;;5057680;28;20459;-74
2023/06/25 07:15:05;;;;;;;8.60;5.70;;;23.40;98.60;;;;;;5057698;28;20021;-73
2023/06/25 07:17:31;;;;;;;8.48;6.20;;;23.30;98.20;;;;;;5057498;28;20032;-74
2023/06/25 07:19:57;;;;;;;6.53;5.78;;;23.40;97.60;;;;;;5057330;28;20036;-74
2023/06/25 07:22:22;;;;;;;6.22;5.63;;;23.30;97.60;;;;;;5075283;28;20521;-74
2023/06/25 07:24:48;;;;;;;8.52;5.95;;;23.40;98.10;;;;;;5075654;28;20103;-74
2023/06/25 07:27:14;;;;;;;6.60;5.97;;;23.50;97.30;;;;;;5075390;28;20020;-74
2023/06/25 07:29:39;;;;;;;8.35;6.65;;;23.60;97.00;;;;;;5057377;28;20480;-74
2023/06/25 07:32:06;;;;;;;6.47;5.68;;;23.50;96.90;;;;;;5075094;28;20531;-74
2023/06/25 07:34:32;;;;;;;7.25;6.57;;;23.50;97.10;;;;;;5075157;28;20058;-74
2023/06/25 07:36:57;;;;;;;6.72;6.05;;;23.70;96.70;;;;;;5068751;28;20029;-74
2023/06/25 07:39:26;;;;;;;7.53;6.13;;;23.80;95.90;;;;;;5055203;28;20381;-73
2023/06/25 07:41:52;;;;;;;7.35;6.60;;;23.70;95.70;;;;;;5055271;28;20025;-74
2023/06/25 07:44:18;;;;;;;7.10;5.93;;;23.60;95.60;;;;;;5037328;28;20125;-75
2023/06/25 07:46:44;;;;;;;6.47;5.88;;;23.60;96.20;;;;;;5037536;28;20484;-73
2023/06/25 07:49:10;;;;;;;8.02;5.85;;;23.50;96.30;;;;;;5036768;28;20387;-73
2023/06/25 07:51:35;;;;;;;7.35;6.03;;;23.60;96.70;;;;;;5055108;28;20036;-73
2023/06/25 07:54:01;;;;;;;6.97;5.90;;;23.60;96.20;;;;;;5055007;28;20461;-76
2023/06/25 07:56:26;;;;;;;6.82;5.85;;;23.80;96.50;;;;;;5036920;28;20071;-74
2023/06/25 07:58:52;;;;;;;6.85;6.10;;;23.90;96.10;;;;;;5054839;28;20461;-74
2023/06/25 08:01:18;;;;;;;9.15;6.40;;;23.90;95.60;;;;;;5036764;28;20024;-75
2023/06/25 08:03:43;;;;;;;6.50;5.82;;;24.00;96.10;;;;;;5054595;28;20021;-72
2023/06/25 08:06:09;;;;;;;8.35;6.25;;;24.40;95.60;;;;;;5054472;28;20116;-72
2023/06/25 08:08:34;;;;;;;8.63;6.15;;;24.60;95.30;;;;;;5036710;28;20487;-71
2023/06/25 08:11:00;;;;;;;6.35;5.63;;;24.70;94.80;;;;;;5054701;28;20029;-72
2023/06/25 08:13:26;;;;;;;11.10;6.38;;;24.70;94.50;;;;;;5054669;28;20029;-72
2023/06/25 08:15:51;;;;;;;7.93;6.13;;;24.80;93.80;;;;;;5053994;28;20033;-72
2023/06/25 08:18:17;;;;;;;8.25;6.32;;;24.60;93.80;;;;;;5054034;28;20032;-72
2023/06/25 08:20:43;;;;;;;6.72;6.03;;;24.60;94.20;;;;;;5053588;28;20029;-72
2023/06/25 08:23:08;;;;;;;8.75;6.05;;;24.70;93.90;;;;;;5054256;28;20040;-72
2023/06/25 08:25:34;;;;;;;11.70;6.32;;;24.70;93.00;;;;;;5054189;28;20029;-72
2023/06/25 08:27:59;;;;;;;10.57;6.32;;;25.00;93.40;;;;;;5054411;28;20037;-72
2023/06/25 08:30:25;;;;;;;8.52;6.32;;;25.20;92.70;;;;;;5054207;28;20476;-72
2023/06/25 08:32:51;;;;;;;8.32;6.90;;;25.20;92.40;;;;;;5066806;28;20012;-72
2023/06/25 08:35:16;;;;;;;8.02;6.43;;;25.20;92.40;;;;;;5056018;28;20021;-71
2023/06/25 08:37:42;;;;;;;6.97;6.28;;;25.10;92.80;;;;;;5074203;28;20031;-71
2023/06/25 08:40:12;;;;;;;6.53;5.88;;;25.50;92.00;;;;;;5074079;28;20074;-71
2023/06/25 08:42:41;;;;;;;7.10;6.22;;;25.20;91.40;;;;;;5056688;28;20029;-72
2023/06/25 08:45:10;;;;;;;8.80;6.50;;;25.40;92.40;;;;;;5055992;28;20070;-72
2023/06/25 08:47:40;;;;;;;8.63;5.97;;;25.70;91.90;;;;;;5055932;28;20108;-72
2023/06/25 08:50:08;;;;;;;7.50;6.38;;;26.20;90.90;;;;;;5073627;28;20450;-73
2023/06/25 08:52:35;;;;;;;7.20;6.45;;;26.40;90.60;;;;;;5055943;28;20036;-71
2023/06/25 08:55:00;;;;;;;7.80;6.70;;;27.10;89.40;;;;;;5055870;28;20025;-72
2023/06/25 08:57:26;;;;;;;8.13;6.18;;;27.10;85.70;;;;;;5073869;28;20375;-73
2023/06/25 08:59:52;;;;;;;6.65;6.07;;;26.90;86.10;;;;;;5055929;28;20024;-73
2023/06/25 09:02:18;;;;;;;7.10;6.45;;;27.00;86.30;;;;;;5073838;28;20043;-72
2023/06/25 09:04:46;;;;;;;8.68;6.65;;;26.90;86.00;;;;;;5055774;28;20399;-72
2023/06/25 09:07:15;;;;;;;12.50;6.72;;;26.90;83.90;;;;;;5073760;28;20119;-72
2023/06/25 09:09:51;;;;;;;7.70;6.90;;;26.80;84.30;;;;;;5073896;28;20107;-72
2023/06/25 09:12:23;;;;;;;7.22;6.53;;;26.80;85.40;;;;;;5056050;28;20016;-73
2023/06/25 09:14:48;;;;;;;6.93;6.22;;;26.80;82.80;;;;;;5073939;28;20017;-73
2023/06/25 09:17:22;;;;;;;8.38;6.47;;;27.30;82.40;;;;;;5073717;28;20141;-72
2023/06/25 09:19:48;;;;;;;9.98;6.70;;;26.80;81.40;;;;;;5055686;28;20032;-72
2023/06/25 09:22:13;;;;;;;9.13;6.75;;;26.10;81.90;;;;;;5073720;28;20032;-73
2023/06/25 09:24:43;;;;;;;10.38;6.88;;;26.50;82.30;;;;;;5074113;28;20086;-72
2023/06/25 09:27:10;;;;;;;8.60;6.88;;;26.90;81.30;;;;;;5073259;28;20028;-73
2023/06/25 09:29:37;;;;;;;7.88;6.38;;;27.10;82.90;;;;;;5055554;28;20115;-72
2023/06/25 09:32:10;;;;;;;8.15;6.68;;;27.50;80.00;;;;;;5058486;28;20116;-73
2023/06/25 09:34:37;;;;;;;7.90;6.40;;;27.50;78.00;;;;;;5059468;28;20025;-73
2023/06/25 09:37:03;;;;;;;6.53;5.93;;;26.90;79.70;;;;;;5077604;28;20517;-73
2023/06/25 09:39:30;;;;;;;8.32;6.15;;;26.90;78.10;;;;;;5059323;28;20080;-73
2023/06/25 09:41:56;;;;;;;7.57;6.88;;;27.40;78.90;;;;;;5077403;28;20016;-72
2023/06/25 09:44:22;;;;;;;10.13;7.30;;;27.70;75.80;;;;;;5077078;28;20035;-73
2023/06/25 09:46:50;;;;;;;7.75;6.95;;;27.80;75.50;;;;;;5059323;28;20054;-73
2023/06/25 09:49:19;;;;;;;7.95;7.20;;;28.10;74.30;;;;;;5076809;28;20025;-73
2023/06/25 09:51:55;;;;;;;9.40;6.97;;;28.60;73.80;;;;;;5077184;28;20368;-73
2023/06/25 09:54:23;;;;;;;10.07;6.75;;;29.00;73.50;;;;;;5077372;28;20020;-74
2023/06/25 09:56:49;;;;;;;9.35;6.65;;;29.20;71.70;;;;;;5059038;28;20032;-74
2023/06/25 09:59:16;;;;;;;7.20;6.50;;;29.20;68.00;;;;;;5076767;28;20024;-73
2023/06/25 10:01:42;;;;;;;7.10;6.32;;;29.20;67.40;;;;;;5058961;28;20032;-74
2023/06/25 10:04:07;;;;;;;9.55;6.30;;;29.50;69.30;;;;;;5073782;28;20029;-74
2023/06/25 10:06:35;;;;;;;6.32;5.68;;;29.70;66.00;;;;;;5058864;28;20031;-73
2023/06/25 10:09:03;;;;;;;7.03;6.27;;;29.40;64.70;;;;;;5069548;28;20017;-73
2023/06/25 10:11:29;;;;;;;8.25;6.65;;;28.80;66.50;;;;;;5059894;28;20025;-73
2023/06/25 10:13:57;;;;;;;7.10;5.97;;;28.40;66.50;;;;;;5056790;28;20025;-73
2023/06/25 10:16:22;;;;;;;6.10;5.57;;;28.90;67.60;;;;;;5056585;28;20017;-73
2023/06/25 10:18:54;;;;;;;6.18;5.60;;;29.90;65.40;;;;;;5055156;28;20044;-74
2023/06/25 10:21:22;;;;;;;6.47;5.85;;;30.30;60.60;;;;;;5048980;28;20119;-73
2023/06/25 10:23:57;;;;;;;9.57;6.53;;;29.50;60.90;;;;;;5076462;28;20024;-72
2023/06/25 10:26:31;;;;;;;6.28;5.72;;;28.40;62.80;;;;;;5057084;28;20029;-74
2023/06/25 10:29:00;;;;;;;7.70;5.82;;;28.50;64.30;;;;;;5038671;28;20078;-66
2023/06/25 10:31:26;;;;;;;6.90;6.07;;;29.20;64.40;;;;;;5038530;28;20025;-74
2023/06/25 10:34:18;;;;;;;8.90;6.45;;;29.50;61.70;;;;;;5056374;28;20028;-74
2023/06/25 10:36:51;;;;;;;7.55;6.50;;;28.50;61.90;;;;;;5035828;28;20045;-74
2023/06/25 10:39:17;;;;;;;6.78;6.18;;;28.10;64.10;;;;;;5038481;28;20036;-74
2023/06/25 10:41:47;;;;;;;6.55;5.97;;;29.00;62.00;;;;;;5055916;28;20051;-77
2023/06/25 10:44:12;;;;;;;9.68;7.28;;;30.00;59.30;;;;;;5037520;28;20377;-74
2023/06/25 10:46:38;;;;;;;7.78;6.20;;;30.40;58.60;;;;;;5056122;28;20029;-74
2023/06/25 10:49:03;;;;;;;7.28;6.57;;;29.50;59.10;;;;;;5037922;28;20060;-74
2023/06/25 10:51:29;;;;;;;6.75;6.18;;;29.00;61.10;;;;;;5056022;28;20024;-74
2023/06/25 10:53:56;;;;;;;6.57;5.93;;;29.20;61.10;;;;;;5055783;28;20369;-74
2023/06/25 10:56:24;;;;;;;6.95;6.22;;;29.90;59.40;;;;;;5055887;28;20488;-75
2023/06/25 10:58:57;;;;;;;7.20;6.50;;;30.40;59.30;;;;;;5055992;28;20047;-76
2023/06/25 11:01:23;;;;;;;7.32;6.40;;;31.00;58.00;;;;;;5055876;28;20036;-73
2023/06/25 11:03:49;;;;;;;6.60;5.90;;;31.20;56.50;;;;;;5055466;28;20032;-73
2023/06/25 11:06:14;;;;;;;7.13;6.38;;;31.40;56.80;;;;;;5056006;28;20043;-73
2023/06/25 11:08:43;;;;;;;6.50;5.80;;;31.70;56.20;;;;;;5037844;28;20032;-73
2023/06/25 11:11:10;;;;;;;6.88;6.18;;;31.10;56.30;;;;;;5055689;28;20025;-73
2023/06/25 11:13:35;;;;;;;6.50;6.00;;;30.40;57.60;;;;;;5055364;28;20099;-73
2023/06/25 11:16:01;;;;;;;7.65;6.55;;;30.00;58.40;;;;;;5053520;28;20029;-72
2023/06/25 11:18:27;;;;;;;6.47;5.93;;;29.80;58.10;;;;;;5056932;28;20040;-72
2023/06/25 11:20:53;;;;;;;7.03;6.03;;;30.30;58.30;;;;;;5057203;28;20059;-73
2023/06/25 11:23:19;;;;;;;6.50;5.97;;;31.10;55.10;;;;;;5065775;28;20017;-73
2023/06/25 11:25:45;;;;;;;6.72;6.07;;;31.60;54.60;;;;;;5053398;28;20036;-73
2023/06/25 11:28:15;;;;;;;6.88;6.03;;;32.10;53.90;;;;;;5054695;28;20017;-74
2023/06/25 11:30:45;;;;;;;8.02;6.13;;;32.40;52.70;;;;;;5037089;28;20028;-73
2023/06/25 11:33:11;;;;;;;6.95;6.35;;;32.80;53.20;;;;;;5054823;28;20029;-73
2023/06/25 11:35:37;;;;;;;6.95;6.35;;;32.70;52.00;;;;;;5036527;28;20112;-73
2023/06/25 11:38:03;;;;;;;6.63;5.72;;;32.80;49.90;;;;;;5060302;28;20025;-73
2023/06/25 11:40:31;;;;;;;6.00;5.50;;;32.80;50.00;;;;;;5054878;28;20036;-73
2023/06/25 11:42:57;;;;;;;6.88;6.10;;;33.10;50.30;;;;;;5055064;28;20025;-72
2023/06/25 11:45:23;;;;;;;6.15;5.55;;;34.00;49.40;;;;;;5055106;28;20044;-73
2023/06/25 11:47:50;;;;;;;6.47;5.88;;;34.10;47.40;;;;;;5055304;28;20098;-73
2023/06/25 11:50:26;;;;;;;6.22;5.63;;;35.00;46.50;;;;;;5054993;28;20049;-73
2023/06/25 11:52:53;;;;;;;6.25;5.65;;;35.00;45.80;;;;;;5037109;28;20036;-73
2023/06/25 11:55:21;;;;;;;6.10;5.60;;;35.10;45.90;;;;;;5054908;28;20021;-73
2023/06/25 11:57:47;;;;;;;7.88;5.95;;;35.20;45.00;;;;;;5036903;28;20035;-73
2023/06/25 12:00:15;;;;;;;6.47;5.87;;;35.20;44.70;;;;;;5036785;28;20045;-73
2023/06/25 12:02:41;;;;;;;6.13;5.40;;;34.50;46.30;;;;;;5036951;28;20025;-73
2023/06/25 12:05:07;;;;;;;6.40;5.80;;;34.40;47.50;;;;;;5054817;28;20029;-73
2023/06/25 12:07:32;;;;;;;6.75;6.07;;;34.50;45.20;;;;;;5054431;28;20032;-73
2023/06/25 12:09:58;;;;;;;6.55;6.05;;;33.80;46.00;;;;;;5036480;28;20043;-72
2023/06/25 12:12:24;;;;;;;6.05;5.55;;;33.70;46.10;;;;;;5036678;28;20028;-72
2023/06/25 12:14:50;;;;;;;6.10;5.60;;;33.90;47.20;;;;;;5054820;28;20161;-74
2023/06/25 12:17:15;;;;;;;6.30;5.70;;;34.40;45.30;;;;;;5036355;28;20078;-74
2023/06/25 12:19:41;;;;;;;6.32;5.72;;;33.30;45.60;;;;;;5036500;28;20087;-75
2023/06/25 12:22:07;;;;;;;5.60;5.20;;;32.70;47.30;;;;;;5036590;28;20031;-74
2023/06/25 12:24:33;;;;;;;8.77;6.28;;;32.00;48.60;;;;;;5054382;28;20029;-74
2023/06/25 12:26:59;;;;;;;6.32;5.72;;;31.70;49.10;;;;;;5054591;28;20368;-74
2023/06/25 12:29:24;;;;;;;6.10;5.60;;;32.30;48.40;;;;;;5054314;28;20021;-73
2023/06/25 12:31:50;;;;;;;6.68;5.97;;;33.40;47.90;;;;;;5054076;28;20099;-74
2023/06/25 12:34:16;;;;;;;6.30;5.60;;;33.70;47.20;;;;;;5036285;28;20027;-73
2023/06/25 12:36:41;;;;;;;5.97;5.47;;;33.70;46.50;;;;;;5054740;28;20036;-74
2023/06/25 12:39:07;;;;;;;9.65;5.43;;;34.30;45.90;;;;;;5054854;28;20507;-73